Time;durP1;ratioP1;P1;durP2;ratioP2;P2;SDS_P1;SDS_P2;PMS_P1;PMS_P2;Temp;Humidity;BMP_temperature;BMP_pressure;BME280_temperature;BME280_humidity;BME280_pressure;Samples;Min_cycle;Max_cycle;Signal;HPM_P1;HPM_P2
2022/09/13 00:00:56;;;;;;;1.70;1.60;;;;;;;17.85;56.87;100755.34;4937764;28;97171;-48
2022/09/13 00:03:22;;;;;;;1.97;1.87;;;;;;;17.83;56.87;100755.16;4948822;28;97156;-48
2022/09/13 00:05:48;;;;;;;2.23;1.47;;;;;;;17.83;57.03;100759.97;4949202;28;97259;-48
2022/09/13 00:08:14;;;;;;;1.80;1.70;;;;;;;17.83;56.94;100763.50;4949155;28;98595;-48
2022/09/13 00:10:41;;;;;;;1.73;1.63;;;;;;;17.82;56.88;100755.69;4936853;28;97135;-48
2022/09/13 00:13:08;;;;;;;3.93;1.77;;;;;;;17.80;56.79;100745.09;4939343;28;100546;-48
2022/09/13 00:15:34;;;;;;;1.70;1.60;;;;;;;17.80;56.91;100752.72;4947677;28;97340;-48
2022/09/13 00:17:59;;;;;;;1.80;1.70;;;;;;;17.77;56.97;100746.19;4947024;28;97755;-48
2022/09/13 00:20:25;;;;;;;1.53;1.43;;;;;;;17.74;57.05;100746.50;4950434;28;97036;-49
2022/09/13 00:22:50;;;;;;;2.23;1.87;;;;;;;17.73;57.13;100745.00;4943351;28;96939;-48
2022/09/13 00:25:16;;;;;;;2.63;2.53;;;;;;;17.72;57.16;100752.59;4934300;28;97473;-48
2022/09/13 00:27:43;;;;;;;1.93;1.83;;;;;;;17.74;57.18;100752.81;4937532;28;97110;-48
2022/09/13 00:30:10;;;;;;;2.07;1.87;;;;;;;17.75;57.24;100742.44;4939095;28;96924;-48
2022/09/13 00:32:35;;;;;;;2.80;1.60;;;;;;;17.78;57.42;100752.47;4941468;28;97192;-48
2022/09/13 00:35:02;;;;;;;1.70;1.60;;;;;;;17.78;57.34;100733.75;4936376;28;97522;-48
2022/09/13 00:37:28;;;;;;;2.07;1.50;;;;;;;17.81;57.49;100729.13;4934647;28;96883;-48
2022/09/13 00:39:53;;;;;;;2.13;1.80;;;;;;;17.84;57.40;100728.06;4939979;28;97608;-48
2022/09/13 00:42:25;;;;;;;2.33;2.13;;;;;;;17.87;57.73;100726.97;4932537;28;116773;-48
2022/09/13 00:45:01;;;;;;;1.90;1.80;;;;;;;17.88;57.66;100720.88;4933434;28;97465;-48
2022/09/13 00:47:36;;;;;;;2.00;1.90;;;;;;;17.89;57.72;100716.78;4942271;28;98832;-48
2022/09/13 00:50:10;;;;;;;2.43;1.80;;;;;;;17.91;57.77;100719.78;4935353;28;97327;-48
2022/09/13 00:52:37;;;;;;;1.63;1.53;;;;;;;17.92;57.50;100721.28;4926742;28;97477;-48
2022/09/13 00:55:14;;;;;;;1.97;1.87;;;;;;;17.92;57.79;100721.28;4944513;28;97460;-48
2022/09/13 00:57:40;;;;;;;1.63;1.53;;;;;;;17.93;57.54;100716.47;4942297;28;97012;-48
2022/09/13 01:00:17;;;;;;;1.80;1.70;;;;;;;17.95;57.81;100708.31;4940994;28;97166;-48
2022/09/13 01:02:53;;;;;;;2.00;1.90;;;;;;;17.96;57.65;100713.34;4944275;28;98584;-48
2022/09/13 01:05:22;;;;;;;1.57;1.47;;;;;;;17.97;57.79;100706.47;4929880;28;97857;-48
2022/09/13 01:07:48;;;;;;;1.70;1.60;;;;;;;17.98;57.69;100699.63;4936577;28;98286;-48
2022/09/13 01:10:14;;;;;;;1.70;1.60;;;;;;;18.01;57.65;100686.66;4938039;28;97402;-48
2022/09/13 01:13:10;;;;;;;2.00;1.80;;;;;;;18.05;57.88;100683.53;4931449;28;97591;-49
2022/09/13 01:15:36;;;;;;;1.70;1.60;;;;;;;18.07;57.87;100692.09;4943120;28;100191;-48
2022/09/13 01:18:02;;;;;;;5.13;1.83;;;;;;;18.10;57.84;100685.44;4942682;28;97253;-48
2022/09/13 01:20:43;;;;;;;1.60;1.60;;;;;;;18.12;58.31;100682.84;4936907;28;97181;-49
2022/09/13 01:23:22;;;;;;;1.63;1.53;;;;;;;18.13;58.23;100662.09;4933806;28;102443;-47
2022/09/13 01:26:10;;;;;;;2.20;1.90;;;;;;;18.13;58.45;100665.59;4940059;28;102166;-48
2022/09/13 01:28:41;;;;;;;1.60;1.50;;;;;;;18.15;57.92;100665.78;4929672;28;96976;-46
2022/09/13 01:31:33;;;;;;;3.30;1.60;;;;;;;18.19;58.11;100677.34;4929375;28;96919;-47
2022/09/13 01:34:12;;;;;;;2.03;1.93;;;;;;;18.20;58.00;100661.38;4932231;28;102436;-48
2022/09/13 01:36:43;;;;;;;2.40;2.30;;;;;;;18.21;58.13;100651.75;4927206;28;97360;-48
2022/09/13 01:39:21;;;;;;;2.10;2.00;;;;;;;18.25;58.32;100652.16;4947593;28;97167;-48
2022/09/13 01:42:31;;;;;;;5.20;1.80;;;;;;;18.24;58.28;100647.88;4934527;28;96796;-48
2022/09/13 01:45:05;;;;;;;5.40;1.80;;;;;;;18.24;57.89;100650.66;4931645;28;101881;-49
2022/09/13 01:47:57;;;;;;;1.80;1.70;;;;;;;18.26;57.98;100653.66;4936729;28;100418;-49
2022/09/13 01:50:51;;;;;;;6.30;2.00;;;;;;;18.25;58.30;100635.44;4940873;28;99584;-49
2022/09/13 01:53:44;;;;;;;2.30;2.10;;;;;;;18.26;57.89;100628.59;4932236;28;97689;-49
2022/09/13 01:56:25;;;;;;;2.20;2.10;;;;;;;18.30;58.30;100634.56;4937524;28;102052;-47
2022/09/13 01:58:54;;;;;;;2.40;2.17;;;;;;;18.29;57.96;100630.25;4934561;28;101415;-49
2022/09/13 02:01:32;;;;;;;2.77;2.57;;;;;;;18.31;58.16;100636.03;4942607;28;97073;-48
2022/09/13 02:04:07;;;;;;;2.20;1.83;;;;;;;18.33;58.25;100628.63;4945019;28;96827;-47
2022/09/13 02:06:39;;;;;;;2.13;2.03;;;;;;;18.35;58.37;100634.38;4927999;28;97975;-48
2022/09/13 02:09:15;;;;;;;2.33;2.13;;;;;;;18.37;58.70;100636.66;4933327;28;97193;-47
2022/09/13 02:11:46;;;;;;;1.70;1.60;;;;;;;18.37;58.09;100648.50;4936501;28;96884;-46
2022/09/13 02:14:15;;;;;;;3.57;2.50;;;;;;;18.39;58.02;100648.00;4927770;28;97428;-47
2022/09/13 02:17:00;;;;;;;1.83;1.73;;;;;;;18.39;58.89;100651.50;4939348;28;97105;-49
2022/09/13 02:19:36;;;;;;;4.33;2.17;;;;;;;18.37;58.82;100662.44;4934690;28;104117;-47
2022/09/13 02:22:05;;;;;;;3.00;2.10;;;;;;;18.36;58.38;100674.13;4941646;28;97661;-47
2022/09/13 02:24:39;;;;;;;2.60;2.40;;;;;;;18.28;59.09;100676.13;4942693;28;97195;-48
2022/09/13 02:27:10;;;;;;;3.23;2.90;;;;;;;18.20;58.92;100673.28;4941374;28;101677;-48
2022/09/13 02:29:39;;;;;;;3.20;2.90;;;;;;;18.18;58.95;100675.84;4945802;28;100473;-46
2022/09/13 02:32:16;;;;;;;4.07;3.77;;;;;;;18.12;59.15;100682.84;4945792;28;97397;-47
2022/09/13 02:34:47;;;;;;;4.00;3.60;;;;;;;18.11;59.41;100692.50;4942074;28;97085;-49
2022/09/13 02:37:13;;;;;;;5.77;4.20;;;;;;;18.14;59.28;100689.38;4945184;28;100425;-47
2022/09/13 02:39:46;;;;;;;8.63;4.90;;;;;;;18.13;59.65;100696.22;4946817;28;97176;-47
2022/09/13 02:42:21;;;;;;;4.10;3.70;;;;;;;18.14;59.88;100694.94;4920449;28;98881;-51
2022/09/13 02:44:52;;;;;;;4.27;3.67;;;;;;;18.18;59.87;100697.38;4930508;28;96967;-47
2022/09/13 02:47:41;;;;;;;4.77;3.77;;;;;;;18.19;60.32;100690.53;4922491;28;98042;-47
2022/09/13 02:50:29;;;;;;;4.07;3.50;;;;;;;18.20;60.70;100692.00;4937583;28;101780;-48
2022/09/13 02:53:12;;;;;;;4.60;4.10;;;;;;;18.18;60.35;100694.59;4937724;28;97590;-50
2022/09/13 02:55:41;;;;;;;3.83;3.23;;;;;;;18.17;59.95;100670.84;4935450;28;97137;-47
2022/09/13 02:58:18;;;;;;;3.90;3.27;;;;;;;18.16;60.31;100672.13;4929646;28;97347;-49
2022/09/13 03:00:46;;;;;;;3.43;3.23;;;;;;;18.15;60.15;100659.50;4936281;28;101530;-48
2022/09/13 03:03:14;;;;;;;3.07;2.73;;;;;;;18.16;60.25;100674.91;4928759;28;97262;-47
2022/09/13 03:05:40;;;;;;;2.93;2.73;;;;;;;18.16;60.26;100656.16;4942942;28;96918;-47
2022/09/13 03:08:09;;;;;;;3.10;2.90;;;;;;;18.16;60.54;100645.03;4928618;28;97345;-46
2022/09/13 03:10:51;;;;;;;4.30;2.93;;;;;;;18.13;60.81;100642.59;4934709;28;96976;-46
2022/09/13 03:13:44;;;;;;;2.93;2.73;;;;;;;18.10;61.50;100640.88;4940501;28;97214;-46
2022/09/13 03:16:44;;;;;;;3.07;2.77;;;;;;;18.09;61.38;100633.81;4940295;28;97465;-47
2022/09/13 03:19:28;;;;;;;2.80;2.60;;;;;;;18.08;61.63;100647.00;4931772;28;100883;-47
2022/09/13 03:22:01;;;;;;;2.83;2.63;;;;;;;18.11;60.77;100636.81;4934223;28;101585;-47
2022/09/13 03:24:32;;;;;;;2.60;2.40;;;;;;;18.13;61.29;100629.41;4941200;28;96812;-46
2022/09/13 03:27:16;;;;;;;2.60;2.27;;;;;;;18.14;60.78;100635.72;4931695;28;98678;-46
2022/09/13 03:29:53;;;;;;;2.97;2.77;;;;;;;18.15;61.02;100634.44;4929633;28;100543;-48
2022/09/13 03:32:35;;;;;;;3.07;2.57;;;;;;;18.15;61.63;100626.09;4939239;28;96757;-49
2022/09/13 03:35:22;;;;;;;3.10;2.80;;;;;;;18.15;61.45;100620.50;4936686;28;96832;-47
2022/09/13 03:38:00;;;;;;;2.47;2.27;;;;;;;18.15;61.50;100624.03;4943443;28;97340;-46
2022/09/13 03:40:28;;;;;;;3.00;2.80;;;;;;;18.13;60.98;100623.81;4927870;28;97571;-47
2022/09/13 03:43:01;;;;;;;3.63;2.60;;;;;;;18.17;61.12;100623.50;4938637;28;96922;-47
2022/09/13 03:45:39;;;;;;;3.80;3.00;;;;;;;18.18;61.63;100619.41;4941627;28;97121;-46
2022/09/13 03:48:06;;;;;;;4.07;3.33;;;;;;;18.17;61.10;100617.94;4935075;28;97596;-48
2022/09/13 03:50:32;;;;;;;2.93;2.73;;;;;;;18.16;61.14;100611.59;4932103;28;96938;-48
2022/09/13 03:53:02;;;;;;;2.83;2.63;;;;;;;18.17;61.14;100610.31;4946973;28;97446;-47
2022/09/13 03:55:31;;;;;;;3.00;2.80;;;;;;;18.18;61.16;100606.25;4945302;28;97191;-47
2022/09/13 03:57:56;;;;;;;3.47;3.17;;;;;;;18.17;61.38;100604.00;4938811;28;97196;-48
2022/09/13 04:00:21;;;;;;;3.73;3.43;;;;;;;18.17;61.46;100596.41;4937722;28;114594;-46
2022/09/13 04:02:47;;;;;;;3.07;2.87;;;;;;;18.17;61.23;100606.78;4923271;28;97252;-49
2022/09/13 04:05:12;;;;;;;3.47;3.17;;;;;;;18.14;61.23;100597.47;4933723;28;97255;-48
2022/09/13 04:07:37;;;;;;;3.40;3.00;;;;;;;18.13;61.51;100607.13;4934281;28;97067;-50
2022/09/13 04:10:03;;;;;;;2.50;2.40;;;;;;;18.10;61.41;100597.09;4931439;28;96888;-49
2022/09/13 04:12:30;;;;;;;3.50;3.20;;;;;;;18.08;61.41;100601.72;4942925;28;98398;-47
2022/09/13 04:14:55;;;;;;;3.57;2.57;;;;;;;18.07;61.51;100605.78;4947772;28;97081;-48
2022/09/13 04:17:20;;;;;;;2.50;2.30;;;;;;;18.08;61.68;100610.06;4939379;28;96876;-47
2022/09/13 04:19:46;;;;;;;3.80;2.90;;;;;;;18.04;61.54;100602.06;4937430;28;108497;-46
2022/09/13 04:22:12;;;;;;;3.07;2.87;;;;;;;18.03;61.75;100599.81;4936844;28;107257;-48
2022/09/13 04:24:38;;;;;;;3.10;2.90;;;;;;;18.04;61.62;100607.63;4926426;28;96937;-50
2022/09/13 04:27:05;;;;;;;3.37;3.07;;;;;;;18.05;61.81;100602.78;4938204;28;97179;-49
2022/09/13 04:29:31;;;;;;;3.70;3.20;;;;;;;18.04;61.83;100607.63;4940730;28;97574;-48
2022/09/13 04:31:57;;;;;;;3.20;3.00;;;;;;;18.04;61.89;100606.88;4935558;28;97775;-48
2022/09/13 04:34:23;;;;;;;3.50;3.20;;;;;;;18.05;61.75;100611.13;4936123;28;97162;-47
2022/09/13 04:36:50;;;;;;;5.00;2.70;;;;;;;18.05;61.75;100608.34;4930553;28;97531;-51
2022/09/13 04:39:15;;;;;;;3.80;3.20;;;;;;;18.02;61.73;100612.97;4929280;28;97631;-48
2022/09/13 04:41:42;;;;;;;3.37;3.07;;;;;;;18.00;61.81;100620.41;4942408;28;97166;-47
2022/09/13 04:44:08;;;;;;;3.57;3.13;;;;;;;17.99;61.91;100614.06;4930606;28;96895;-47
2022/09/13 04:46:33;;;;;;;3.83;3.20;;;;;;;18.00;61.83;100625.97;4937935;28;97004;-47
2022/09/13 04:48:59;;;;;;;3.23;3.03;;;;;;;18.02;61.92;100628.94;4938125;28;98458;-47
2022/09/13 04:51:24;;;;;;;4.00;2.90;;;;;;;18.03;61.95;100631.19;4943836;28;97741;-47
2022/09/13 04:53:54;;;;;;;6.50;3.00;;;;;;;18.03;62.09;100633.22;4945894;28;97399;-47
2022/09/13 04:56:23;;;;;;;3.30;2.80;;;;;;;18.03;62.10;100631.19;4930096;28;97040;-51
2022/09/13 04:58:53;;;;;;;3.23;2.87;;;;;;;18.05;62.34;100636.19;4934532;28;97441;-47
2022/09/13 05:01:20;;;;;;;2.83;2.63;;;;;;;18.05;62.10;100625.81;4934286;28;101593;-47
2022/09/13 05:03:45;;;;;;;3.57;3.17;;;;;;;18.06;62.16;100626.56;4936671;28;96766;-47
2022/09/13 05:06:14;;;;;;;3.40;3.10;;;;;;;18.06;62.16;100624.53;4934462;28;97489;-47
2022/09/13 05:08:39;;;;;;;3.87;3.47;;;;;;;18.07;62.19;100626.00;4945357;28;97659;-49
2022/09/13 05:11:06;;;;;;;4.40;3.70;;;;;;;18.10;62.31;100615.81;4943223;28;104295;-48
2022/09/13 05:13:32;;;;;;;3.60;3.30;;;;;;;18.11;62.38;100623.63;4944960;28;97123;-47
2022/09/13 05:16:07;;;;;;;8.23;3.37;;;;;;;18.14;62.70;100611.41;4936275;28;96971;-46
2022/09/13 05:18:35;;;;;;;3.40;3.10;;;;;;;18.16;62.34;100605.28;4945242;28;97319;-47
2022/09/13 05:21:02;;;;;;;3.73;3.43;;;;;;;18.18;62.35;100616.63;4925816;28;98882;-46
2022/09/13 05:23:29;;;;;;;3.87;3.57;;;;;;;18.20;62.39;100608.47;4935665;28;96849;-48
2022/09/13 05:25:59;;;;;;;3.20;3.00;;;;;;;18.23;62.64;100615.75;4928184;28;96887;-48
2022/09/13 05:28:30;;;;;;;2.53;2.33;;;;;;;18.23;62.45;100604.59;4935793;28;97638;-46
2022/09/13 05:31:06;;;;;;;3.77;3.47;;;;;;;18.24;62.47;100606.09;4947587;28;97414;-48
2022/09/13 05:33:34;;;;;;;3.70;3.40;;;;;;;18.26;62.52;100611.88;4940158;28;96945;-47
2022/09/13 05:36:00;;;;;;;5.17;4.10;;;;;;;18.27;62.38;100614.09;4935221;28;97152;-46
2022/09/13 05:38:26;;;;;;;3.40;3.17;;;;;;;18.29;62.51;100622.66;4939466;28;97339;-47
2022/09/13 05:40:56;;;;;;;3.90;3.60;;;;;;;18.31;62.68;100613.75;4946880;28;97795;-47
2022/09/13 05:43:22;;;;;;;3.90;3.57;;;;;;;18.30;62.71;100612.25;4948367;28;96821;-47
2022/09/13 05:45:48;;;;;;;4.00;3.63;;;;;;;18.30;62.75;100604.66;4933967;28;97108;-47
2022/09/13 05:48:13;;;;;;;4.07;3.63;;;;;;;18.34;62.67;100609.88;4934629;28;97921;-47
2022/09/13 05:50:38;;;;;;;4.03;3.63;;;;;;;18.36;62.89;100610.06;4939620;28;98429;-49
2022/09/13 05:53:04;;;;;;;4.97;3.37;;;;;;;18.38;62.71;100607.47;4947032;28;96962;-46
2022/09/13 05:55:30;;;;;;;4.07;3.77;;;;;;;18.41;62.80;100609.19;4950572;28;96805;-47
2022/09/13 05:57:56;;;;;;;3.47;2.87;;;;;;;18.44;62.80;100614.41;4936966;28;97160;-47
2022/09/13 06:00:21;;;;;;;4.50;4.10;;;;;;;18.47;62.81;100610.56;4933709;28;97455;-49
2022/09/13 06:02:46;;;;;;;4.20;3.90;;;;;;;18.50;62.88;100605.94;4937829;28;97156;-48
2022/09/13 06:05:12;;;;;;;3.93;3.60;;;;;;;18.51;62.73;100613.72;4938951;28;98539;-50
2022/09/13 06:07:41;;;;;;;3.60;3.30;;;;;;;18.54;62.96;100609.09;4934758;28;98513;-48
2022/09/13 06:10:07;;;;;;;5.53;3.83;;;;;;;18.57;62.92;100619.88;4950418;28;96967;-47
2022/09/13 06:12:33;;;;;;;3.73;3.43;;;;;;;18.60;62.93;100620.84;4939053;28;96901;-47
2022/09/13 06:14:58;;;;;;;4.73;4.33;;;;;;;18.62;62.74;100613.41;4942152;28;97122;-49
2022/09/13 06:17:23;;;;;;;4.60;4.20;;;;;;;18.65;62.93;100615.09;4942266;28;102609;-47
2022/09/13 06:19:49;;;;;;;4.47;3.53;;;;;;;18.66;62.83;100622.16;4932050;28;101205;-47
2022/09/13 06:22:14;;;;;;;4.17;3.73;;;;;;;18.67;62.99;100618.06;4935589;28;97198;-48
2022/09/13 06:24:39;;;;;;;8.90;4.33;;;;;;;18.69;62.96;100611.97;4944678;28;97182;-47
2022/09/13 06:27:05;;;;;;;4.43;4.13;;;;;;;18.69;63.14;100614.75;4936795;28;113366;-47
2022/09/13 06:29:30;;;;;;;4.73;4.17;;;;;;;18.73;63.12;100606.78;4934539;28;98486;-47
2022/09/13 06:31:56;;;;;;;4.53;4.07;;;;;;;18.75;63.23;100604.19;4934627;28;101475;-47
2022/09/13 06:34:21;;;;;;;3.90;3.60;;;;;;;18.78;63.22;100596.78;4939308;28;97257;-46
2022/09/13 06:36:46;;;;;;;4.03;3.63;;;;;;;18.81;63.42;100604.00;4933914;28;112120;-47
2022/09/13 06:39:12;;;;;;;3.73;3.43;;;;;;;18.82;63.40;100611.09;4940253;28;97016;-51
2022/09/13 06:41:37;;;;;;;4.10;3.70;;;;;;;18.82;63.43;100611.84;4944689;28;97494;-47
2022/09/13 06:44:03;;;;;;;11.00;3.33;;;;;;;18.83;63.62;100613.31;4944725;28;97070;-47
2022/09/13 06:46:31;;;;;;;3.73;3.43;;;;;;;18.87;63.62;100610.19;4933232;28;98442;-49
2022/09/13 06:49:14;;;;;;;4.03;3.70;;;;;;;18.87;64.35;100613.72;4937657;28;97781;-47
2022/09/13 06:51:39;;;;;;;4.03;3.63;;;;;;;18.87;63.61;100604.63;4927610;28;113749;-46
2022/09/13 06:54:05;;;;;;;3.23;3.00;;;;;;;18.89;63.70;100613.19;4939917;28;104429;-47
2022/09/13 06:56:33;;;;;;;5.80;3.03;;;;;;;18.91;63.63;100613.38;4937650;28;98261;-48
2022/09/13 06:59:04;;;;;;;3.20;2.90;;;;;;;18.93;63.80;100614.31;4946621;28;97321;-49
2022/09/13 07:01:36;;;;;;;4.07;3.80;;;;;;;18.98;63.67;100610.59;4934264;28;97284;-49
2022/09/13 07:04:05;;;;;;;3.53;3.27;;;;;;;19.01;63.61;100628.28;4944740;28;96677;-47
2022/09/13 07:06:36;;;;;;;3.70;3.40;;;;;;;19.01;63.85;100620.66;4932725;28;97397;-50
2022/09/13 07:09:04;;;;;;;11.73;3.90;;;;;;;19.01;63.71;100629.03;4931024;28;96804;-48
2022/09/13 07:11:37;;;;;;;3.50;3.20;;;;;;;19.04;63.76;100635.53;4945559;28;97202;-46
2022/09/13 07:14:02;;;;;;;3.60;3.30;;;;;;;19.05;63.83;100625.88;4928172;28;97149;-48
2022/09/13 07:16:30;;;;;;;3.37;3.17;;;;;;;19.08;63.76;100619.19;4923915;28;97795;-49
2022/09/13 07:18:57;;;;;;;5.57;3.20;;;;;;;19.09;63.78;100626.28;4937960;28;97556;-47
2022/09/13 07:21:24;;;;;;;4.00;3.70;;;;;;;19.10;63.85;100627.75;4924824;28;97048;-48
2022/09/13 07:23:51;;;;;;;4.33;3.93;;;;;;;19.13;63.75;100632.25;4939654;28;97620;-48
2022/09/13 07:26:16;;;;;;;5.03;3.90;;;;;;;19.15;63.99;100632.44;4947899;28;98740;-46
2022/09/13 07:28:48;;;;;;;4.57;4.03;;;;;;;19.19;64.13;100641.19;4948747;28;97434;-46
2022/09/13 07:31:17;;;;;;;4.87;4.47;;;;;;;19.21;63.87;100633.00;4942452;28;97491;-48
2022/09/13 07:33:44;;;;;;;5.00;4.47;;;;;;;19.24;63.91;100643.06;4937335;28;97269;-48
2022/09/13 07:36:10;;;;;;;6.13;5.53;;;;;;;19.28;64.02;100641.41;4933027;28;97168;-49
2022/09/13 07:38:40;;;;;;;7.50;5.77;;;;;;;19.33;63.78;100643.25;4936416;28;100076;-46
2022/09/13 07:41:09;;;;;;;6.37;5.70;;;;;;;19.36;64.06;100647.78;4925135;28;97167;-47
2022/09/13 07:43:35;;;;;;;6.23;5.63;;;;;;;19.40;64.09;100653.72;4934466;28;97441;-46
2022/09/13 07:46:04;;;;;;;8.33;6.90;;;;;;;19.41;63.81;100655.25;4925884;28;98700;-46
2022/09/13 07:48:33;;;;;;;6.17;5.57;;;;;;;19.44;64.12;100656.16;4937513;28;97334;-48
2022/09/13 07:51:15;;;;;;;8.10;6.10;;;;;;;19.47;64.44;100657.09;4928908;28;97509;-48
2022/09/13 07:53:42;;;;;;;6.53;5.90;;;;;;;19.49;63.98;100655.25;4941098;28;96689;-46
2022/09/13 07:56:16;;;;;;;8.33;7.50;;;;;;;19.53;64.02;100652.09;4941612;28;98549;-47
2022/09/13 07:58:43;;;;;;;8.00;7.13;;;;;;;19.56;64.13;100656.56;4927574;28;97471;-46
2022/09/13 08:01:11;;;;;;;6.57;5.90;;;;;;;19.57;64.12;100653.19;4940969;28;96862;-48
2022/09/13 08:03:37;;;;;;;6.73;6.10;;;;;;;19.59;64.17;100638.72;4927075;28;96648;-48
2022/09/13 08:06:04;;;;;;;9.70;6.73;;;;;;;19.63;64.19;100636.31;4941773;28;97436;-48
2022/09/13 08:08:30;;;;;;;9.10;6.97;;;;;;;19.68;64.28;100646.56;4944171;28;97385;-48
2022/09/13 08:10:56;;;;;;;8.37;6.90;;;;;;;19.71;64.18;100651.75;4936825;28;96904;-47
2022/09/13 08:13:22;;;;;;;8.57;6.70;;;;;;;19.76;64.20;100650.09;4939110;28;97464;-46
2022/09/13 08:15:48;;;;;;;9.60;6.87;;;;;;;19.80;64.39;100656.03;4927466;28;97538;-48
2022/09/13 08:18:15;;;;;;;9.47;7.00;;;;;;;19.83;64.21;100655.66;4940588;28;97902;-47
2022/09/13 08:20:40;;;;;;;8.07;6.53;;;;;;;19.85;64.27;100660.72;4925850;28;97515;-47
2022/09/13 08:23:06;;;;;;;8.67;6.83;;;;;;;19.88;64.31;100659.59;4937708;28;96945;-47
2022/09/13 08:25:33;;;;;;;7.37;6.30;;;;;;;19.91;64.29;100658.47;4925165;28;97543;-47
2022/09/13 08:28:06;;;;;;;8.50;6.70;;;;;;;19.94;64.32;100655.31;4944856;28;97489;-47
2022/09/13 08:30:36;;;;;;;8.57;6.80;;;;;;;20.00;64.56;100660.72;4942408;28;97254;-47
2022/09/13 08:33:05;;;;;;;7.40;6.37;;;;;;;20.05;64.68;100665.38;4943910;28;96866;-46
2022/09/13 08:35:32;;;;;;;9.27;6.37;;;;;;;20.06;64.51;100670.41;4936266;28;97774;-50
2022/09/13 08:37:58;;;;;;;7.27;6.23;;;;;;;20.10;64.28;100670.78;4931702;28;97865;-48
2022/09/13 08:40:26;;;;;;;8.27;6.73;;;;;;;20.12;64.45;100670.22;4927664;28;97479;-48
2022/09/13 08:43:28;;;;;;;8.70;6.90;;;;;;;20.10;64.82;100670.78;4933243;28;96730;-47
2022/09/13 08:46:01;;;;;;;8.50;6.73;;;;;;;20.11;64.61;100658.31;4941778;28;100333;-47
2022/09/13 08:48:38;;;;;;;9.10;7.43;;;;;;;20.16;64.58;100659.41;4929579;28;96675;-48
2022/09/13 08:51:13;;;;;;;10.10;6.97;;;;;;;20.18;64.60;100665.22;4936755;28;97499;-47
2022/09/13 08:53:44;;;;;;;6.83;6.10;;;;;;;20.23;64.67;100660.75;4932418;28;118382;-49
2022/09/13 08:56:14;;;;;;;8.93;6.87;;;;;;;20.29;64.44;100670.41;4938130;28;97987;-49
2022/09/13 08:58:48;;;;;;;8.37;6.57;;;;;;;20.33;64.51;100670.81;4942846;28;96756;-48
2022/09/13 09:01:37;;;;;;;8.90;7.10;;;;;;;20.35;65.04;100668.19;4939227;28;97340;-49
2022/09/13 09:04:12;;;;;;;12.37;6.60;;;;;;;20.35;64.54;100667.44;4932258;28;96694;-49
2022/09/13 09:06:38;;;;;;;9.70;7.47;;;;;;;20.37;64.61;100668.38;4925927;28;97044;-49
2022/09/13 09:09:14;;;;;;;11.00;6.97;;;;;;;20.40;64.66;100670.03;4932019;28;97353;-48
2022/09/13 09:11:49;;;;;;;10.73;7.90;;;;;;;20.41;64.70;100671.53;4931053;28;96786;-48
2022/09/13 09:14:21;;;;;;;9.17;7.10;;;;;;;20.42;64.60;100667.44;4930871;28;97365;-49
2022/09/13 09:16:52;;;;;;;8.83;6.93;;;;;;;20.44;64.69;100662.03;4938090;28;96907;-49
2022/09/13 09:19:22;;;;;;;10.37;7.37;;;;;;;20.46;64.51;100675.44;4935450;28;96958;-49
2022/09/13 09:21:50;;;;;;;9.80;7.57;;;;;;;20.48;64.45;100675.63;4931902;28;97112;-49
2022/09/13 09:24:20;;;;;;;9.97;7.00;;;;;;;20.47;64.71;100674.13;4931474;28;97072;-48
2022/09/13 09:26:46;;;;;;;10.50;7.33;;;;;;;20.47;64.59;100669.28;4938327;28;96793;-48
2022/09/13 09:29:24;;;;;;;9.30;6.37;;;;;;;20.51;65.00;100680.13;4944309;28;97509;-49
2022/09/13 09:32:08;;;;;;;8.00;6.83;;;;;;;20.53;64.94;100669.13;4934029;28;97329;-49
2022/09/13 09:34:52;;;;;;;9.57;7.20;;;;;;;20.57;64.94;100675.06;4935658;28;97389;-48
2022/09/13 09:37:25;;;;;;;7.57;6.87;;;;;;;20.61;64.76;100676.19;4945262;28;100663;-49
2022/09/13 09:40:01;;;;;;;13.47;7.77;;;;;;;20.66;64.84;100669.63;4933446;28;100279;-49
2022/09/13 09:42:32;;;;;;;12.03;8.50;;;;;;;20.70;64.66;100670.00;4940799;28;96783;-49
2022/09/13 09:45:32;;;;;;;10.03;8.50;;;;;;;20.72;65.17;100667.41;4944868;28;97167;-49
2022/09/13 09:48:01;;;;;;;10.47;8.30;;;;;;;20.75;64.56;100671.84;4941116;28;101187;-49
2022/09/13 09:50:31;;;;;;;11.07;8.10;;;;;;;20.79;64.61;100661.03;4946420;28;98444;-48
2022/09/13 09:53:23;;;;;;;13.60;8.33;;;;;;;20.80;65.10;100668.13;4939709;28;96964;-49
2022/09/13 09:55:55;;;;;;;10.43;8.07;;;;;;;20.86;64.66;100665.09;4934028;28;96754;-47
2022/09/13 09:58:44;;;;;;;9.87;8.60;;;;;;;20.90;65.18;100665.50;4928346;28;97117;-49
2022/09/13 10:01:24;;;;;;;9.90;7.50;;;;;;;20.98;65.13;100660.59;4943704;28;103056;-49
2022/09/13 10:03:57;;;;;;;8.40;6.90;;;;;;;21.05;64.67;100651.47;4934570;28;96851;-50
2022/09/13 10:06:26;;;;;;;9.00;7.43;;;;;;;21.17;64.80;100655.31;4930993;28;97282;-48
2022/09/13 10:09:17;;;;;;;10.77;9.10;;;;;;;21.27;64.68;100658.28;4938737;28;96904;-49
2022/09/13 10:11:45;;;;;;;12.07;8.47;;;;;;;21.34;64.53;100663.81;4934867;28;101617;-49
2022/09/13 10:14:35;;;;;;;11.37;8.67;;;;;;;21.42;64.70;100663.78;4953605;28;97540;-49
2022/09/13 10:17:25;;;;;;;11.13;8.60;;;;;;;21.43;64.71;100665.28;4930285;28;97146;-48
2022/09/13 10:19:53;;;;;;;12.97;8.97;;;;;;;21.44;64.24;100664.72;4938441;28;97168;-49
2022/09/13 10:22:19;;;;;;;13.40;9.47;;;;;;;21.46;64.47;100656.50;4944695;28;97112;-49
2022/09/13 10:24:44;;;;;;;12.87;8.37;;;;;;;21.52;64.36;100659.06;4946999;28;97635;-49
2022/09/13 10:27:26;;;;;;;12.13;8.70;;;;;;;21.59;64.62;100656.22;4940193;28;96891;-48
2022/09/13 10:29:55;;;;;;;10.70;7.07;;;;;;;21.62;64.33;100668.34;4924292;28;96866;-48
2022/09/13 10:32:21;;;;;;;9.60;7.60;;;;;;;21.64;64.31;100669.25;4938070;28;97022;-48
2022/09/13 10:34:48;;;;;;;8.27;6.60;;;;;;;21.69;64.30;100669.63;4940665;28;96779;-46
2022/09/13 10:37:19;;;;;;;7.83;6.33;;;;;;;21.75;64.36;100679.28;4927373;28;97037;-49
2022/09/13 10:40:26;;;;;;;6.53;5.57;;;;;;;21.79;64.61;100667.69;4943159;28;100698;-48
2022/09/13 10:42:55;;;;;;;8.20;5.40;;;;;;;21.85;64.31;100671.03;4944432;28;101154;-49
2022/09/13 10:45:30;;;;;;;9.03;4.40;;;;;;;21.87;64.47;100663.53;4937705;28;97232;-48
2022/09/13 10:48:10;;;;;;;6.10;4.13;;;;;;;21.88;64.33;100667.84;4936642;28;96921;-49
2022/09/13 10:50:35;;;;;;;4.90;3.90;;;;;;;21.89;64.12;100660.91;4934747;28;102048;-48
2022/09/13 10:53:02;;;;;;;3.40;3.10;;;;;;;21.92;64.16;100653.41;4939683;28;97168;-53
2022/09/13 10:55:34;;;;;;;4.10;2.97;;;;;;;21.94;64.35;100650.78;4932503;28;96650;-49
2022/09/13 10:58:14;;;;;;;2.57;2.37;;;;;;;21.97;64.21;100656.00;4935482;28;96833;-49
2022/09/13 11:00:42;;;;;;;2.83;2.50;;;;;;;21.93;64.03;100652.13;4928925;28;100686;-49
2022/09/13 11:03:24;;;;;;;2.73;2.40;;;;;;;21.93;64.07;100654.91;4932758;28;97275;-49
2022/09/13 11:06:02;;;;;;;3.23;2.40;;;;;;;21.91;64.02;100655.47;4933253;28;97582;-49
2022/09/13 11:08:39;;;;;;;3.70;2.10;;;;;;;21.89;63.88;100660.91;4939750;28;96924;-46
2022/09/13 11:11:31;;;;;;;2.50;2.30;;;;;;;21.90;63.85;100661.66;4938108;28;97533;-48
2022/09/13 11:14:03;;;;;;;2.90;2.60;;;;;;;21.87;63.83;100655.13;4937664;28;101497;-46
2022/09/13 11:16:37;;;;;;;3.87;2.77;;;;;;;21.88;63.87;100662.22;4944026;28;97141;-48
2022/09/13 11:19:14;;;;;;;9.57;2.23;;;;;;;21.92;63.97;100665.38;4922627;28;97222;-47
2022/09/13 11:21:50;;;;;;;4.70;3.30;;;;;;;21.91;63.96;100669.47;4932276;28;98074;-46
2022/09/13 11:24:34;;;;;;;4.00;3.47;;;;;;;21.83;64.20;100668.78;4923091;28;99607;-48
2022/09/13 11:27:08;;;;;;;3.90;3.60;;;;;;;21.75;64.38;100676.50;4932519;28;96705;-49
2022/09/13 11:29:54;;;;;;;3.90;2.83;;;;;;;21.69;64.31;100678.03;4941194;28;97196;-51
2022/09/13 11:32:41;;;;;;;1.83;1.73;;;;;;;21.60;64.27;100679.38;4942916;28;97868;-48
2022/09/13 11:35:37;;;;;;;2.33;1.00;;;;;;;21.49;64.13;100680.53;4943393;28;100149;-47
2022/09/13 11:38:28;;;;;;;1.70;1.30;;;;;;;21.41;64.30;100679.09;4925874;28;97042;-48
2022/09/13 11:41:12;;;;;;;2.70;1.17;;;;;;;21.38;64.29;100671.84;4939741;28;96985;-48
2022/09/13 11:44:09;;;;;;;1.30;0.90;;;;;;;21.41;64.25;100676.28;4942696;28;101643;-47
2022/09/13 11:46:53;;;;;;;0.90;0.60;;;;;;;21.39;64.36;100678.91;4939472;28;100222;-48